»·PEaware :: N612SB KSNA-KSNA

N612SB :: KSNA-KSNA

FLIGHT INFORMATION

Flight Status: Arrived
Operator: Privately registered:
United States
More flights under this callsign
Pilot: Clay B. (17061)
Aircraft: BOEING 737-200
(B732)
More flights by this aircraft type
Origin: KSNA John Wayne-Orange Co
United States
Destination: KSNA John Wayne-Orange Co
United States
More flights between these airports :: More routes between these airports
Route: +SLI
File this flight plan on PilotEdge
Remarks:
Altitude:
(Current/Filed)
5,000ft
Speed:
(Current/Filed)
0kts
Departed: 01-Dec-18 08:24 PM
Arrived: 01-Dec-18 09:13 PM
Distance/Time
Traveled:
0nm/0:49
Distance/Time
To Go:
Arrived

Flight Plot

Page will automatically refresh every two minutes.


Map Options




Map Legend


Flown Route
Filed Route
Departure Airport
Arrival Airport
Navaid (VOR, NDB)
Fix

Horizontal Profiles

Position Reports

Time Latitude Longitude Heading Altitude Ground
Speed
01-Dec-18 20:00 33.665853 -117.873419 203 65ft 0kts
01-Dec-18 20:01 33.665853 -117.873419 203 65ft 0kts
01-Dec-18 20:02 33.665853 -117.873419 203 65ft 0kts
01-Dec-18 20:03 33.665853 -117.873419 203 65ft 0kts
01-Dec-18 20:04 33.665853 -117.873419 203 65ft 0kts
01-Dec-18 20:05 33.665853 -117.873419 203 65ft 0kts
01-Dec-18 20:06 33.665853 -117.873419 203 65ft 0kts
01-Dec-18 20:07 33.665853 -117.873419 203 65ft 0kts
01-Dec-18 20:08 33.665853 -117.873419 203 65ft 0kts
01-Dec-18 20:09 33.665853 -117.873419 203 65ft 0kts
01-Dec-18 20:10 33.665853 -117.873419 203 65ft 0kts
01-Dec-18 20:11 33.665853 -117.873419 203 65ft 0kts
01-Dec-18 20:12 33.665853 -117.873419 203 65ft 0kts
01-Dec-18 20:13 33.665853 -117.873419 203 65ft 0kts
01-Dec-18 20:14 33.665853 -117.873419 203 65ft 0kts
01-Dec-18 20:15 33.665826 -117.873443 219 65ft 2kts
01-Dec-18 20:16 33.667673 -117.872484 39 65ft 10kts
01-Dec-18 20:17 33.669971 -117.870093 40 65ft 11kts
01-Dec-18 20:18 33.672374 -117.867977 28 65ft 12kts
01-Dec-18 20:19 33.675224 -117.865788 27 65ft 16kts
01-Dec-18 20:20 33.679195 -117.863271 29 65ft 17kts
01-Dec-18 20:21 33.682790 -117.860971 54 65ft 1kts
01-Dec-18 20:22 33.680696 -117.862293 227 65ft 8kts
01-Dec-18 20:23 33.680620 -117.863022 294 65ft 0kts
01-Dec-18 20:24 33.680620 -117.863022 294 65ft 0kts
01-Dec-18 20:25 33.680689 -117.863201 294 65ft 7kts
01-Dec-18 20:26 33.681283 -117.865276 206 65ft 0kts
01-Dec-18 20:27 33.660043 -117.877969 194 743ft 187kts
01-Dec-18 20:28 33.594479 -117.887878 186 3384ft 263kts
01-Dec-18 20:29 33.538212 -117.842509 94 5023ft 292kts
01-Dec-18 20:30 33.582540 -117.777513 21 4977ft 258kts
01-Dec-18 20:31 33.644479 -117.745148 17 4997ft 230kts
01-Dec-18 20:32 33.705493 -117.726098 11 5010ft 231kts
01-Dec-18 20:33 33.772115 -117.705320 11 4946ft 254kts
01-Dec-18 20:34 33.839966 -117.685387 356 3978ft 238kts
01-Dec-18 20:35 33.857463 -117.731179 237 3570ft 180kts
01-Dec-18 20:36 33.823897 -117.774158 210 2990ft 170kts
01-Dec-18 20:37 33.785509 -117.799053 208 2418ft 143kts
01-Dec-18 20:38 33.753120 -117.819669 207 1636ft 123kts
01-Dec-18 20:39 33.721331 -117.839869 207 979ft 133kts
01-Dec-18 20:40 33.689120 -117.860370 208 266ft 130kts
01-Dec-18 20:41 33.653258 -117.882818 208 964ft 194kts
01-Dec-18 20:42 33.595268 -117.923454 212 3767ft 259kts
01-Dec-18 20:43 33.528145 -117.962483 184 5033ft 293kts
01-Dec-18 20:44 33.476279 -117.904840 81 5012ft 278kts
01-Dec-18 20:45 33.524299 -117.844956 31 5004ft 248kts
01-Dec-18 20:46 33.584231 -117.810375 21 5004ft 233kts
01-Dec-18 20:47 33.641960 -117.780015 21 5005ft 223kts
01-Dec-18 20:48 33.700649 -117.748524 21 5010ft 238kts
01-Dec-18 20:49 33.760463 -117.715524 21 5001ft 236kts
01-Dec-18 20:50 33.822994 -117.688436 11 4386ft 253kts
01-Dec-18 20:51 33.888799 -117.682561 316 3984ft 217kts
01-Dec-18 20:52 33.882845 -117.734885 228 3923ft 158kts
01-Dec-18 20:53 33.841614 -117.763338 209 2981ft 167kts
01-Dec-18 20:54 33.803870 -117.787407 209 2779ft 155kts
01-Dec-18 20:55 33.769353 -117.809367 208 2120ft 132kts
01-Dec-18 20:56 33.735933 -117.830593 207 1283ft 128kts
01-Dec-18 20:57 33.704926 -117.850760 207 629ft 126kts
01-Dec-18 20:58 33.673792 -117.870059 207 67ft 125kts
01-Dec-18 20:59 33.628559 -117.897838 207 2565ft 232kts
01-Dec-18 21:00 33.560840 -117.938822 207 2993ft 281kts
01-Dec-18 21:01 33.494923 -117.975664 184 2990ft 249kts
01-Dec-18 21:02 33.465921 -117.922975 53 3028ft 227kts
01-Dec-18 21:03 33.523284 -117.877567 26 3947ft 264kts
01-Dec-18 21:04 33.590871 -117.833885 26 5020ft 304kts
01-Dec-18 21:05 33.657024 -117.790597 26 4980ft 242kts
01-Dec-18 21:06 33.713455 -117.751644 26 5017ft 238kts
01-Dec-18 21:07 33.773487 -117.714584 21 5012ft 246kts
01-Dec-18 21:08 33.835615 -117.681023 21 5000ft 238kts
01-Dec-18 21:09 33.892745 -117.674185 310 4821ft 213kts
01-Dec-18 21:10 33.883305 -117.742508 236 3911ft 216kts
01-Dec-18 21:11 33.829004 -117.773036 205 3002ft 220kts
01-Dec-18 21:12 33.779887 -117.802706 209 2266ft 158kts
01-Dec-18 21:13 33.746549 -117.823835 209 1494ft 124kts
01-Dec-18 21:14 33.715719 -117.843426 209 848ft 126kts
01-Dec-18 21:15 33.685069 -117.862934 207 188ft 126kts
01-Dec-18 21:16 33.669459 -117.871933 149 65ft 0kts
01-Dec-18 21:17 33.668993 -117.871392 149 65ft 7kts
01-Dec-18 21:18 33.667911 -117.871738 220 65ft 0kts
01-Dec-18 21:19 33.667911 -117.871738 220 65ft 0kts

Navigation Log

Ident Type
Flight plan parsing failed, navigation log unavailable